createdAt,value
2022-12-23T00:00:15.050Z,0.43
2022-12-23T00:02:43.002Z,0.30
2022-12-23T00:05:11.524Z,0.40
2022-12-23T00:07:39.453Z,0.77
2022-12-23T00:10:09.815Z,0.20
2022-12-23T00:12:55.152Z,0.50
2022-12-23T00:15:22.958Z,0.63
2022-12-23T00:17:50.824Z,0.32
2022-12-23T00:20:18.714Z,0.22
2022-12-23T00:23:04.077Z,0.60
2022-12-23T00:25:44.633Z,0.30
2022-12-23T00:28:14.833Z,0.20
2022-12-23T00:30:47.863Z,0.35
2022-12-23T00:33:16.513Z,0.35
2022-12-23T00:35:45.312Z,0.45
2022-12-23T00:38:13.480Z,0.20
2022-12-23T00:40:59.884Z,0.20
2022-12-23T00:43:27.661Z,0.30
2022-12-23T00:45:55.765Z,0.20
2022-12-23T00:48:41.082Z,0.73
2022-12-23T00:51:08.792Z,0.30
2022-12-23T00:53:36.542Z,0.30
2022-12-23T00:56:06.808Z,0.22
2022-12-23T00:58:34.601Z,0.20
2022-12-23T01:01:19.786Z,0.30
2022-12-23T01:04:04.950Z,0.35
2022-12-23T01:06:32.804Z,0.45
2022-12-23T01:09:00.681Z,0.40
2022-12-23T01:11:29.739Z,0.30
2022-12-23T01:13:58.961Z,0.28
2022-12-23T01:16:26.851Z,0.50
2022-12-23T01:18:54.719Z,0.30
2022-12-23T01:21:22.435Z,0.47
2022-12-23T01:23:50.279Z,0.35
2022-12-23T01:26:18.018Z,0.30
2022-12-23T01:28:47.442Z,0.40
2022-12-23T01:31:15.253Z,0.45
2022-12-23T01:33:43.035Z,0.22
2022-12-23T01:36:11.870Z,0.40
2022-12-23T01:38:39.985Z,0.45
2022-12-23T01:41:08.024Z,0.43
2022-12-23T01:43:51.002Z,0.30
2022-12-23T01:46:19.725Z,0.40
2022-12-23T01:48:53.009Z,0.10
2022-12-23T01:51:26.391Z,0.30
2022-12-23T01:56:27.982Z,0.40
2022-12-23T01:59:00.422Z,0.57
2022-12-23T02:01:46.120Z,0.53
2022-12-23T02:04:18.589Z,0.60
2022-12-23T02:07:07.216Z,0.67
2022-12-23T02:09:37.359Z,0.70
2022-12-23T02:12:36.232Z,0.38
2022-12-23T02:15:36.923Z,0.65
2022-12-23T02:18:18.142Z,0.55
2022-12-23T02:21:28.763Z,0.73
2022-12-23T02:24:36.366Z,1.08
2022-12-23T02:27:12.878Z,0.30
2022-12-23T02:30:12.228Z,0.60
2022-12-23T02:32:51.447Z,0.65
2022-12-23T02:35:28.788Z,0.85
2022-12-23T02:38:03.428Z,0.68
2022-12-23T02:40:37.106Z,0.63
2022-12-23T02:43:10.940Z,0.77
2022-12-23T02:45:45.704Z,0.60
2022-12-23T02:48:23.204Z,0.65
2022-12-23T02:50:54.478Z,0.80
2022-12-23T02:53:27.372Z,0.60
2022-12-23T02:55:57.438Z,0.55
2022-12-23T02:58:30.266Z,0.70
2022-12-23T03:01:01.049Z,0.60
2022-12-23T03:03:30.556Z,0.93
2022-12-23T03:05:58.624Z,0.80
2022-12-23T03:08:30.516Z,0.80
2022-12-23T03:11:05.796Z,0.60
2022-12-23T03:13:46.238Z,0.90
2022-12-23T03:16:22.846Z,1.38
2022-12-23T03:19:07.191Z,0.75
2022-12-23T03:21:40.898Z,0.68
2022-12-23T03:24:22.746Z,1.15
2022-12-23T03:26:57.891Z,0.90
2022-12-23T03:29:30.885Z,0.90
2022-12-23T03:32:03.135Z,1.10
2022-12-23T03:34:37.424Z,0.68
2022-12-23T03:37:08.194Z,1.30
2022-12-23T03:39:39.795Z,0.90
2022-12-23T03:42:14.407Z,0.55
2022-12-23T03:47:35.535Z,0.90
2022-12-23T03:50:09.150Z,1.20
2022-12-23T03:52:41.729Z,1.00
2022-12-23T03:55:15.480Z,1.00
2022-12-23T03:57:48.650Z,1.23
2022-12-23T04:00:16.578Z,0.88
2022-12-23T04:02:53.457Z,0.75
2022-12-23T04:05:28.406Z,0.68
2022-12-23T04:08:02.809Z,0.68
2022-12-23T04:10:31.646Z,1.00
2022-12-23T04:12:59.883Z,0.45
2022-12-23T04:15:29.085Z,0.93
2022-12-23T04:17:58.600Z,0.98
2022-12-23T04:20:27.694Z,0.70
2022-12-23T04:22:55.527Z,1.17
2022-12-23T04:25:23.273Z,1.08
2022-12-23T04:27:51.191Z,0.50
2022-12-23T04:30:19.076Z,0.60
2022-12-23T04:32:46.970Z,0.63
2022-12-23T04:35:14.958Z,0.43
2022-12-23T04:37:44.117Z,0.30
2022-12-23T04:40:12.602Z,0.55
2022-12-23T04:42:40.424Z,0.25
2022-12-23T04:45:09.267Z,0.50
2022-12-23T04:47:37.040Z,0.25
2022-12-23T04:50:05.285Z,0.47
2022-12-23T04:52:33.102Z,0.38
2022-12-23T04:55:02.256Z,0.43
2022-12-23T04:57:30.041Z,0.52
2022-12-23T04:59:57.734Z,0.40
2022-12-23T05:02:25.649Z,0.25
2022-12-23T05:04:53.380Z,0.57
2022-12-23T05:07:21.191Z,0.20
2022-12-23T05:09:48.930Z,0.30
2022-12-23T05:12:18.147Z,0.30
2022-12-23T05:14:45.988Z,0.25
2022-12-23T05:17:13.731Z,0.20
2022-12-23T05:19:41.497Z,0.20
2022-12-23T05:22:09.314Z,0.43
2022-12-23T05:24:37.072Z,0.25
2022-12-23T05:27:05.078Z,0.50
2022-12-23T05:29:34.208Z,0.73
2022-12-23T05:32:02.012Z,0.57
2022-12-23T05:34:29.903Z,0.70
2022-12-23T05:36:57.704Z,0.40
2022-12-23T05:39:25.512Z,0.50
2022-12-23T05:41:53.295Z,1.20
2022-12-23T05:44:21.051Z,0.90
2022-12-23T05:46:50.202Z,0.70
2022-12-23T05:49:18.106Z,0.50
2022-12-23T05:51:45.848Z,0.82
2022-12-23T05:54:13.790Z,1.10
2022-12-23T05:56:41.758Z,0.70
2022-12-23T05:59:10.024Z,0.93
2022-12-23T06:01:37.767Z,0.28
2022-12-23T06:04:07.213Z,0.50
2022-12-23T06:06:34.999Z,0.55
2022-12-23T06:09:02.803Z,0.80
2022-12-23T06:11:30.557Z,0.68
2022-12-23T06:13:58.348Z,1.02
2022-12-23T06:16:26.176Z,1.17
2022-12-23T06:18:55.864Z,0.80
2022-12-23T06:21:25.512Z,0.60
2022-12-23T06:23:53.512Z,0.60
2022-12-23T06:26:21.677Z,0.43
2022-12-23T06:28:49.434Z,1.02
2022-12-23T06:31:17.426Z,0.52
2022-12-23T06:33:45.272Z,0.45
2022-12-23T06:36:12.991Z,0.38
2022-12-23T06:38:42.103Z,0.40
2022-12-23T06:41:09.965Z,0.40
2022-12-23T06:43:37.723Z,0.30
2022-12-23T06:46:05.914Z,0.40
2022-12-23T06:48:33.694Z,0.32
2022-12-23T06:51:01.446Z,0.20
2022-12-23T06:53:29.282Z,0.35
2022-12-23T06:56:02.470Z,0.57
2022-12-23T06:58:30.511Z,0.17
2022-12-23T07:00:58.292Z,0.20
2022-12-23T07:03:26.126Z,0.75
2022-12-23T07:05:54.431Z,0.40
2022-12-23T07:08:22.296Z,0.30
2022-12-23T07:10:50.044Z,0.20
2022-12-23T07:13:19.167Z,0.38
2022-12-23T07:15:46.905Z,0.30
2022-12-23T07:18:15.437Z,0.22
2022-12-23T07:20:43.248Z,0.28
2022-12-23T07:23:11.083Z,0.82
2022-12-23T07:25:38.756Z,0.40
2022-12-23T07:28:06.554Z,0.68
2022-12-23T07:30:36.303Z,0.60
2022-12-23T07:33:04.108Z,0.22
2022-12-23T07:35:31.886Z,0.50
2022-12-23T07:37:59.684Z,0.98
2022-12-23T07:40:28.072Z,0.73
2022-12-23T07:42:58.238Z,0.40
2022-12-23T07:45:26.204Z,0.65
2022-12-23T07:47:55.917Z,0.82
2022-12-23T07:50:23.865Z,0.77
2022-12-23T07:52:52.260Z,1.45
2022-12-23T07:55:20.398Z,1.25
2022-12-23T07:57:49.296Z,0.95
2022-12-23T08:00:18.436Z,1.00
2022-12-23T08:02:46.340Z,0.90
2022-12-23T08:05:16.513Z,0.98
2022-12-23T08:07:45.659Z,0.75
2022-12-23T08:10:13.942Z,1.63
2022-12-23T08:12:41.755Z,0.95
2022-12-23T08:15:10.293Z,1.27
2022-12-23T08:17:38.064Z,1.33
2022-12-23T08:20:06.835Z,1.00
2022-12-23T08:22:35.965Z,0.90
2022-12-23T08:25:03.804Z,0.82
2022-12-23T08:27:31.617Z,1.60
2022-12-23T08:29:59.379Z,2.15
2022-12-23T08:32:28.142Z,0.93
2022-12-23T08:34:57.388Z,1.38
2022-12-23T08:37:25.437Z,2.20
2022-12-23T08:39:54.511Z,2.00
2022-12-23T08:42:22.253Z,1.55
2022-12-23T08:44:49.993Z,2.35
2022-12-23T08:47:17.919Z,1.77
2022-12-23T08:49:45.609Z,1.73
2022-12-23T08:52:13.426Z,1.63
2022-12-23T08:54:41.146Z,1.50
2022-12-23T08:57:10.248Z,1.25
2022-12-23T08:59:38.775Z,1.83
2022-12-23T09:02:06.594Z,1.23
2022-12-23T09:04:34.455Z,2.15
2022-12-23T09:07:02.159Z,1.40
2022-12-23T09:09:30.028Z,1.77
2022-12-23T09:11:57.831Z,2.05
2022-12-23T09:14:26.989Z,3.45
2022-12-23T09:16:54.776Z,2.72
2022-12-23T09:19:22.555Z,1.85
2022-12-23T09:21:50.242Z,2.50
2022-12-23T09:24:17.984Z,1.95
2022-12-23T09:26:45.795Z,2.45
2022-12-23T09:29:13.619Z,3.30
2022-12-23T09:31:42.888Z,2.40
2022-12-23T09:34:12.345Z,3.05
2022-12-23T09:36:40.141Z,3.55
2022-12-23T09:39:07.875Z,2.03
2022-12-23T09:41:53.343Z,4.57
2022-12-23T09:44:44.527Z,2.42
2022-12-23T09:47:17.289Z,1.70
2022-12-23T09:49:49.907Z,2.60
2022-12-23T09:52:23.567Z,1.80
2022-12-23T09:54:54.477Z,1.70
2022-12-23T09:57:26.735Z,1.15
2022-12-23T10:00:14.313Z,2.83
2022-12-23T10:02:59.059Z,2.67
2022-12-23T10:05:35.346Z,2.20
2022-12-23T10:08:08.970Z,1.38
2022-12-23T10:10:42.522Z,1.77
2022-12-23T10:13:23.561Z,1.33
2022-12-23T10:15:53.058Z,1.33
2022-12-23T10:18:27.363Z,1.70
2022-12-23T10:20:59.591Z,1.15
2022-12-23T10:23:35.090Z,0.95
2022-12-23T10:26:08.576Z,1.27
2022-12-23T10:28:36.427Z,2.33
2022-12-23T10:31:31.099Z,1.27
2022-12-23T10:34:03.873Z,2.42
2022-12-23T10:36:41.409Z,1.80
2022-12-23T10:39:19.867Z,1.70
2022-12-23T10:41:56.740Z,1.50
2022-12-23T10:44:40.869Z,1.63
2022-12-23T10:47:19.877Z,1.30
2022-12-23T10:50:00.249Z,1.70
2022-12-23T10:52:33.022Z,1.10
2022-12-23T10:55:00.900Z,1.63
2022-12-23T10:57:30.418Z,1.38
2022-12-23T10:59:58.531Z,1.38
2022-12-23T11:02:40.653Z,1.73
2022-12-23T11:05:16.547Z,2.05
2022-12-23T11:07:46.203Z,2.38
2022-12-23T11:10:18.909Z,0.90
2022-12-23T11:12:50.375Z,1.92
2022-12-23T11:15:33.811Z,3.03
2022-12-23T11:18:04.361Z,1.55
2022-12-23T11:20:34.266Z,1.52
2022-12-23T11:23:03.673Z,1.58
2022-12-23T11:25:35.241Z,2.00
2022-12-23T11:28:07.178Z,1.83
2022-12-23T11:30:38.922Z,1.80
2022-12-23T11:33:07.100Z,2.17
2022-12-23T11:35:38.024Z,1.67
2022-12-23T11:38:13.440Z,1.58
2022-12-23T11:40:41.458Z,2.80
2022-12-23T11:43:15.535Z,1.90
2022-12-23T11:45:43.354Z,2.60
2022-12-23T11:48:29.237Z,1.73
2022-12-23T11:51:02.587Z,2.70
2022-12-23T11:56:02.525Z,2.55
2022-12-23T11:58:32.243Z,2.78
2022-12-23T12:01:01.452Z,2.60
2022-12-23T12:03:33.085Z,4.68
2022-12-23T12:06:04.755Z,2.22
2022-12-23T12:08:35.117Z,2.90
2022-12-23T12:11:07.241Z,2.60
2022-12-23T12:13:40.935Z,3.58
2022-12-23T12:16:28.064Z,4.47
2022-12-23T12:18:58.382Z,3.15
2022-12-23T12:21:32.363Z,3.30
2022-12-23T12:24:18.316Z,4.15
2022-12-23T12:26:52.593Z,4.43
2022-12-23T12:29:26.791Z,5.55
2022-12-23T12:31:57.923Z,3.83
2022-12-23T12:34:35.007Z,3.88
2022-12-23T12:37:10.097Z,4.35
2022-12-23T12:39:44.044Z,2.97
2022-12-23T12:42:17.135Z,3.38
2022-12-23T12:44:53.475Z,3.25
2022-12-23T12:47:52.566Z,4.03
2022-12-23T12:50:21.404Z,4.55
2022-12-23T12:52:52.903Z,4.83
2022-12-23T12:55:26.159Z,4.18
2022-12-23T12:57:53.975Z,3.25
2022-12-23T13:00:23.518Z,4.70
2022-12-23T13:03:21.440Z,4.35
2022-12-23T13:06:01.290Z,2.97
2022-12-23T13:08:54.659Z,3.75
2022-12-23T13:11:29.806Z,4.00
2022-12-23T13:14:05.299Z,4.90
2022-12-23T13:16:45.090Z,4.03
2022-12-23T13:19:21.845Z,3.50
2022-12-23T13:21:54.066Z,4.18
2022-12-23T13:24:29.672Z,4.25
2022-12-23T13:27:06.993Z,4.93
2022-12-23T13:29:58.492Z,3.97
2022-12-23T13:32:42.386Z,3.88
2022-12-23T13:35:28.125Z,5.00
2022-12-23T13:38:04.952Z,5.32
2022-12-23T13:40:44.537Z,4.13
2022-12-23T13:43:16.350Z,3.50
2022-12-23T13:45:46.482Z,4.35
2022-12-23T13:48:29.118Z,3.75
2022-12-23T13:51:05.262Z,4.63
2022-12-23T13:53:49.032Z,4.32
2022-12-23T13:56:28.192Z,2.90
2022-12-23T13:58:56.802Z,4.30
2022-12-23T14:01:35.856Z,5.25
2022-12-23T14:04:35.791Z,5.90
2022-12-23T14:07:07.799Z,3.13
2022-12-23T14:09:38.640Z,4.78
2022-12-23T14:12:21.552Z,4.40
2022-12-23T14:15:05.514Z,4.40
2022-12-23T14:17:45.297Z,4.15
2022-12-23T14:20:30.716Z,4.32
2022-12-23T14:23:08.073Z,3.70
2022-12-23T14:25:51.925Z,5.25
2022-12-23T14:28:41.310Z,5.03
2022-12-23T14:31:30.318Z,5.70
2022-12-23T14:34:04.415Z,4.78
2022-12-23T14:36:32.354Z,4.70
2022-12-23T14:39:33.942Z,5.88
2022-12-23T14:42:06.004Z,4.30
2022-12-23T14:44:51.659Z,3.10
2022-12-23T14:47:32.627Z,4.20
2022-12-23T14:50:33.797Z,5.50
2022-12-23T14:53:03.048Z,4.85
2022-12-23T14:56:09.405Z,4.72
2022-12-23T14:58:54.945Z,3.78
2022-12-23T15:01:31.294Z,3.60
2022-12-23T15:04:01.894Z,4.50
2022-12-23T15:06:36.413Z,3.70
2022-12-23T15:09:07.425Z,3.78
2022-12-23T15:11:37.047Z,5.78
2022-12-23T15:14:11.506Z,4.88
2022-12-23T15:16:44.944Z,4.63
2022-12-23T15:19:22.657Z,4.82
2022-12-23T15:21:59.633Z,6.13
2022-12-23T15:24:31.043Z,4.22
2022-12-23T15:27:25.253Z,4.03
2022-12-23T15:29:50.568Z,5.63
2022-12-23T15:32:20.686Z,4.13
2022-12-23T15:34:49.025Z,5.63
2022-12-23T15:37:19.812Z,3.80
2022-12-23T15:39:54.155Z,5.40
2022-12-23T15:42:31.756Z,3.85
2022-12-23T15:44:59.659Z,4.60
2022-12-23T15:47:31.489Z,5.00
2022-12-23T15:50:00.153Z,4.20
2022-12-23T15:52:28.907Z,4.63
2022-12-23T15:55:01.736Z,5.78
2022-12-23T15:57:31.254Z,4.65
2022-12-23T16:00:00.338Z,5.82
2022-12-23T16:02:59.595Z,4.97
2022-12-23T16:05:26.672Z,4.10
2022-12-23T16:08:10.859Z,5.18
2022-12-23T16:10:39.370Z,4.78
2022-12-23T16:13:17.041Z,4.05
2022-12-23T16:15:45.140Z,5.28
2022-12-23T16:18:20.876Z,5.38
2022-12-23T16:20:51.035Z,3.67
2022-12-23T16:23:19.002Z,4.38
2022-12-23T16:25:50.323Z,4.38
2022-12-23T16:28:24.274Z,3.72
2022-12-23T16:30:55.166Z,4.35
2022-12-23T16:33:34.973Z,3.90
2022-12-23T16:36:19.800Z,4.63
2022-12-23T16:38:48.823Z,3.50
2022-12-23T16:41:16.566Z,4.72
2022-12-23T16:43:51.619Z,4.75
2022-12-23T16:46:22.053Z,4.38
2022-12-23T16:48:55.455Z,3.92
2022-12-23T16:51:24.603Z,4.15
2022-12-23T16:53:56.300Z,4.38
2022-12-23T16:56:27.540Z,4.13
2022-12-23T16:58:55.377Z,4.78
2022-12-23T17:01:25.149Z,4.22
2022-12-23T17:03:55.900Z,6.15
2022-12-23T17:06:24.172Z,4.60
2022-12-23T17:08:53.128Z,3.70
2022-12-23T17:11:24.046Z,4.32
2022-12-23T17:13:52.892Z,3.47
2022-12-23T17:16:24.438Z,3.88
2022-12-23T17:18:54.738Z,4.28
2022-12-23T17:21:25.630Z,4.45
2022-12-23T17:23:56.631Z,4.65
2022-12-23T17:26:24.373Z,4.50
2022-12-23T17:28:52.206Z,4.43
2022-12-23T17:31:26.584Z,4.30
2022-12-23T17:33:56.600Z,4.60
2022-12-23T17:36:24.514Z,5.63
2022-12-23T17:38:52.351Z,5.78
2022-12-23T17:41:27.373Z,4.35
2022-12-23T17:43:55.508Z,4.90
2022-12-23T17:46:23.552Z,6.47
2022-12-23T17:48:51.738Z,5.82
2022-12-23T17:51:23.735Z,5.90
2022-12-23T17:53:57.709Z,5.43
2022-12-23T17:56:28.148Z,5.63
2022-12-23T17:58:56.056Z,5.05
2022-12-23T18:01:26.003Z,5.63
2022-12-23T18:03:54.538Z,5.07
2022-12-23T18:06:25.615Z,4.93
2022-12-23T18:08:53.448Z,3.83
2022-12-23T18:11:24.795Z,5.75
2022-12-23T18:13:54.818Z,6.93
2022-12-23T18:16:22.580Z,4.20
2022-12-23T18:18:50.805Z,4.85
2022-12-23T18:21:24.218Z,6.85
2022-12-23T18:26:20.022Z,6.68
2022-12-23T18:28:48.021Z,5.40
2022-12-23T18:31:18.274Z,6.47
2022-12-23T18:33:46.398Z,5.32
2022-12-23T18:36:23.996Z,4.85
2022-12-23T18:38:52.941Z,6.03
2022-12-23T18:41:20.947Z,4.15
2022-12-23T18:43:48.761Z,4.10
2022-12-23T18:46:16.849Z,6.95
2022-12-23T18:48:44.776Z,6.10
2022-12-23T18:51:14.950Z,7.72
2022-12-23T18:53:44.596Z,6.88
2022-12-23T18:56:14.894Z,5.50
2022-12-23T18:58:42.691Z,4.95
2022-12-23T19:01:12.841Z,6.05
2022-12-23T19:03:41.086Z,5.97
2022-12-23T19:06:10.400Z,6.25
2022-12-23T19:08:39.032Z,3.90
2022-12-23T19:11:12.066Z,6.70
2022-12-23T19:13:39.866Z,4.50
2022-12-23T19:16:07.862Z,6.35
2022-12-23T19:18:35.807Z,7.38
2022-12-23T19:21:05.349Z,5.32
2022-12-23T19:23:33.047Z,5.55
2022-12-23T19:26:00.897Z,6.82
2022-12-23T19:28:30.031Z,5.60
2022-12-23T19:30:57.898Z,6.53
2022-12-23T19:33:25.995Z,4.57
2022-12-23T19:35:53.731Z,6.32
2022-12-23T19:38:21.553Z,5.57
2022-12-23T19:40:58.049Z,5.75
2022-12-23T19:43:25.914Z,5.60
2022-12-23T19:45:59.295Z,6.57
2022-12-23T19:50:59.075Z,5.95
2022-12-23T19:53:27.555Z,4.55
2022-12-23T19:55:59.492Z,7.57
2022-12-23T19:58:27.498Z,5.28
2022-12-23T20:01:08.075Z,5.53
2022-12-23T20:03:36.357Z,4.90
2022-12-23T20:06:06.343Z,5.22
2022-12-23T20:08:34.390Z,6.30
2022-12-23T20:11:07.183Z,5.05
2022-12-23T20:13:35.756Z,4.80
2022-12-23T20:16:04.493Z,4.90
2022-12-23T20:18:33.795Z,4.30
2022-12-23T20:21:01.887Z,5.00
2022-12-23T20:23:30.167Z,6.40
2022-12-23T20:25:58.328Z,5.53
2022-12-23T20:28:26.139Z,4.78
2022-12-23T20:31:01.082Z,4.80
2022-12-23T20:33:28.985Z,5.68
2022-12-23T20:35:58.111Z,6.45
2022-12-23T20:38:25.959Z,4.20
2022-12-23T20:40:53.737Z,5.30
2022-12-23T20:43:21.622Z,4.93
2022-12-23T20:45:51.953Z,3.72
2022-12-23T20:48:21.580Z,5.40
2022-12-23T20:50:49.721Z,5.30
2022-12-23T20:53:18.887Z,6.85
2022-12-23T20:55:46.600Z,6.07
2022-12-23T20:58:32.091Z,4.32
2022-12-23T21:01:09.040Z,6.35
2022-12-23T21:03:37.131Z,4.80
2022-12-23T21:06:05.346Z,5.82
2022-12-23T21:08:34.932Z,5.65
2022-12-23T21:11:03.412Z,4.85
2022-12-23T21:13:31.198Z,5.55
2022-12-23T21:16:02.684Z,6.25
2022-12-23T21:18:30.743Z,4.53
2022-12-23T21:21:00.452Z,5.18
2022-12-23T21:23:28.808Z,6.50
2022-12-23T21:26:09.180Z,5.47
2022-12-23T21:28:37.569Z,5.38
2022-12-23T21:31:06.049Z,6.25
2022-12-23T21:33:36.161Z,5.05
2022-12-23T21:36:04.153Z,5.15
2022-12-23T21:38:33.730Z,6.78
2022-12-23T21:41:02.730Z,5.22
2022-12-23T21:43:31.942Z,3.83
2022-12-23T21:46:01.258Z,7.00
2022-12-23T21:48:32.598Z,4.80
2022-12-23T21:51:04.980Z,5.28
2022-12-23T21:53:34.004Z,5.18
2022-12-23T21:56:03.486Z,4.75
2022-12-23T21:58:33.386Z,4.47
2022-12-23T22:01:01.658Z,7.60
2022-12-23T22:03:29.374Z,4.82
2022-12-23T22:06:10.146Z,5.47
2022-12-23T22:08:39.515Z,3.97
2022-12-23T22:11:08.608Z,6.95
2022-12-23T22:13:38.187Z,7.53
2022-12-23T22:16:10.104Z,4.95
2022-12-23T22:18:38.764Z,4.85
2022-12-23T22:21:07.205Z,6.95
2022-12-23T22:23:35.034Z,6.85
2022-12-23T22:26:02.931Z,4.32
2022-12-23T22:28:32.270Z,6.07
2022-12-23T22:31:04.374Z,5.07
2022-12-23T22:33:32.621Z,5.13
2022-12-23T22:36:00.751Z,6.93
2022-12-23T22:38:28.738Z,5.88
2022-12-23T22:40:56.442Z,4.30
2022-12-23T22:43:24.269Z,4.75
2022-12-23T22:45:57.342Z,4.28
2022-12-23T22:48:28.813Z,5.03
2022-12-23T22:51:02.993Z,4.93
2022-12-23T22:53:31.038Z,5.30
2022-12-23T22:55:59.516Z,5.72
2022-12-23T22:58:27.841Z,5.63
2022-12-23T23:00:55.924Z,4.63
2022-12-23T23:03:23.854Z,6.18
2022-12-23T23:06:04.255Z,6.05
2022-12-23T23:08:32.629Z,5.18
2022-12-23T23:11:02.669Z,5.22
2022-12-23T23:13:34.359Z,3.97
2022-12-23T23:16:02.493Z,6.38
2022-12-23T23:18:31.463Z,5.20
2022-12-23T23:20:59.582Z,5.07
2022-12-23T23:23:28.975Z,4.32
2022-12-23T23:25:56.720Z,5.30
2022-12-23T23:28:24.575Z,4.15
2022-12-23T23:31:03.815Z,4.90
2022-12-23T23:33:40.092Z,5.60
2022-12-23T23:36:08.987Z,5.20
2022-12-23T23:38:38.354Z,6.53
2022-12-23T23:41:06.597Z,5.40
2022-12-23T23:43:34.498Z,4.22
2022-12-23T23:46:02.611Z,4.90
2022-12-23T23:48:30.446Z,5.05
2022-12-23T23:51:05.903Z,5.50
2022-12-23T23:53:33.959Z,5.65
2022-12-23T23:56:04.716Z,4.50
2022-12-23T23:58:32.780Z,3.75
